Time;durP1;ratioP1;P1;durP2;ratioP2;P2;SDS_P1;SDS_P2;PMS_P1;PMS_P2;Temp;Humidity;BMP_temperature;BMP_pressure;BME280_temperature;BME280_humidity;BME280_pressure;Samples;Min_cycle;Max_cycle;Signal;HPM_P1;HPM_P2
2021/12/08 00:00:57;;;;;;;9.90;4.65;;;4.20;99.90;;;;;;4886519;29;20482;-88
2021/12/08 00:03:25;;;;;;;11.10;5.05;;;4.20;99.90;;;;;;4886617;29;20035;-87
2021/12/08 00:05:51;;;;;;;9.25;5.20;;;4.10;99.90;;;;;;4888170;29;20502;-86
2021/12/08 00:08:19;;;;;;;10.90;5.05;;;4.10;99.90;;;;;;4894588;29;20029;-86
2021/12/08 00:13:22;;;;;;;9.75;5.00;;;4.20;99.90;;;;;;4905423;29;20033;-88
2021/12/08 00:15:50;;;;;;;14.07;6.60;;;4.10;99.90;;;;;;4887122;29;20041;-86
2021/12/08 00:18:21;;;;;;;10.85;5.00;;;4.10;99.90;;;;;;4886896;29;20020;-85
2021/12/08 00:20:48;;;;;;;10.90;5.03;;;4.10;99.90;;;;;;4884995;29;20036;-87
2021/12/08 00:23:15;;;;;;;10.40;5.60;;;4.20;99.90;;;;;;4891151;29;20020;-84
2021/12/08 00:25:42;;;;;;;13.95;6.45;;;4.20;99.90;;;;;;4888316;29;20028;-87
2021/12/08 00:28:08;;;;;;;13.10;6.45;;;4.20;99.90;;;;;;4886964;29;20139;-88
2021/12/08 00:30:35;;;;;;;11.48;6.57;;;4.10;99.90;;;;;;4886875;29;20028;-88
2021/12/08 00:33:01;;;;;;;9.75;5.65;;;4.20;99.90;;;;;;4902855;29;20028;-88
2021/12/08 00:35:28;;;;;;;16.63;6.90;;;4.20;99.90;;;;;;4885243;29;20040;-89
2021/12/08 00:37:57;;;;;;;12.38;6.68;;;4.20;99.90;;;;;;4886745;29;20013;-86
2021/12/08 00:40:27;;;;;;;11.88;6.70;;;4.10;99.90;;;;;;4903811;29;20119;-87
2021/12/08 00:42:52;;;;;;;13.27;7.80;;;4.20;99.90;;;;;;4885300;29;20025;-89
2021/12/08 00:45:21;;;;;;;13.07;7.10;;;4.20;99.90;;;;;;4885019;29;20084;-88
2021/12/08 00:47:46;;;;;;;14.88;7.20;;;4.20;99.90;;;;;;4869126;29;20032;-88
2021/12/08 00:50:15;;;;;;;14.52;6.47;;;4.20;99.90;;;;;;4901937;29;20380;-88
2021/12/08 00:52:41;;;;;;;12.43;7.35;;;4.20;99.90;;;;;;4901944;29;20376;-89
2021/12/08 00:55:10;;;;;;;13.10;6.93;;;4.20;99.90;;;;;;4879001;29;20032;-87
2021/12/08 00:57:36;;;;;;;12.65;6.43;;;4.20;99.90;;;;;;4884011;29;20037;-88
2021/12/08 01:00:07;;;;;;;14.38;7.30;;;4.20;99.90;;;;;;4897845;29;20088;-89
2021/12/08 01:02:33;;;;;;;12.20;6.95;;;4.20;99.90;;;;;;4898048;29;20025;-89
2021/12/08 01:05:00;;;;;;;13.30;7.18;;;4.30;99.90;;;;;;4899171;29;20100;-88
2021/12/08 01:07:25;;;;;;;14.32;7.85;;;4.30;99.90;;;;;;4881851;29;20025;-86
2021/12/08 01:09:51;;;;;;;13.15;7.78;;;4.30;99.90;;;;;;4882840;29;20039;-87
2021/12/08 01:12:17;;;;;;;11.60;6.88;;;4.30;99.90;;;;;;4901093;29;20056;-86
2021/12/08 01:14:42;;;;;;;14.85;7.40;;;4.30;99.90;;;;;;4901436;29;20017;-89
2021/12/08 01:17:09;;;;;;;13.27;7.47;;;4.40;99.90;;;;;;4885021;29;20025;-87
2021/12/08 01:19:35;;;;;;;9.65;7.28;;;4.40;99.90;;;;;;4899105;29;20104;-89
2021/12/08 01:22:01;;;;;;;11.93;7.57;;;4.40;99.90;;;;;;4881448;29;20024;-89
2021/12/08 01:24:27;;;;;;;13.60;7.47;;;4.40;99.90;;;;;;4881579;29;20602;-90
2021/12/08 01:26:54;;;;;;;9.95;6.30;;;4.50;99.90;;;;;;4882794;29;20028;-87
2021/12/08 01:29:21;;;;;;;11.88;7.05;;;4.50;99.90;;;;;;4898713;29;20060;-90
2021/12/08 01:31:47;;;;;;;8.07;5.38;;;4.50;99.90;;;;;;4882261;29;20041;-89
2021/12/08 01:34:13;;;;;;;12.48;6.68;;;4.60;99.90;;;;;;4898226;29;20481;-87
2021/12/08 01:36:41;;;;;;;9.27;6.43;;;4.70;99.90;;;;;;4897673;29;20041;-89
2021/12/08 01:39:07;;;;;;;8.25;5.85;;;4.70;99.90;;;;;;4898290;29;20033;-89
2021/12/08 01:41:35;;;;;;;11.13;6.30;;;4.80;99.90;;;;;;4898939;29;20037;-89
2021/12/08 01:46:46;;;;;;;9.07;6.00;;;4.80;99.90;;;;;;4899022;29;20053;-88
2021/12/08 01:49:12;;;;;;;11.98;6.10;;;4.90;99.90;;;;;;4898359;29;20062;-88
2021/12/08 01:51:38;;;;;;;11.30;6.43;;;4.90;99.90;;;;;;4896645;29;20028;-87
2021/12/08 01:54:06;;;;;;;10.25;6.53;;;4.90;99.90;;;;;;4879673;29;20032;-90
2021/12/08 01:56:34;;;;;;;12.40;6.53;;;5.00;99.90;;;;;;4896389;29;20092;-86
2021/12/08 01:59:02;;;;;;;10.77;7.03;;;5.00;99.90;;;;;;4879428;29;20759;-86
2021/12/08 02:01:31;;;;;;;11.70;6.82;;;5.00;99.90;;;;;;4880950;29;20016;-86
2021/12/08 02:03:56;;;;;;;10.52;6.45;;;5.00;99.90;;;;;;4897649;29;20025;-89
2021/12/08 02:06:23;;;;;;;12.07;6.63;;;5.10;99.90;;;;;;4880830;29;20124;-87
2021/12/08 02:08:52;;;;;;;10.38;7.07;;;5.10;99.90;;;;;;4897836;29;20032;-88
2021/12/08 02:11:21;;;;;;;13.98;7.07;;;5.10;99.90;;;;;;4881616;29;20118;-89
2021/12/08 02:13:49;;;;;;;9.45;6.60;;;5.10;99.90;;;;;;4881369;29;20028;-89
2021/12/08 02:16:16;;;;;;;11.48;6.97;;;5.10;99.90;;;;;;4881123;29;20033;-88
2021/12/08 02:18:47;;;;;;;12.85;7.47;;;5.10;99.90;;;;;;4881444;29;20061;-90
2021/12/08 02:21:24;;;;;;;11.10;7.00;;;5.20;99.90;;;;;;4898444;29;20048;-91
2021/12/08 02:23:49;;;;;;;11.07;6.00;;;5.20;99.90;;;;;;4883460;29;20060;-87
2021/12/08 02:26:15;;;;;;;8.52;5.75;;;5.20;99.90;;;;;;4900567;29;20016;-88
2021/12/08 02:28:42;;;;;;;9.07;5.68;;;5.30;99.90;;;;;;4900870;29;20443;-88
2021/12/08 02:31:12;;;;;;;10.50;6.00;;;5.30;99.90;;;;;;4902343;29;20033;-91
2021/12/08 02:49:48;;;;;;;10.82;5.57;;;5.40;99.90;;;;;;4912969;29;20036;-86
2021/12/08 02:52:14;;;;;;;10.32;5.50;;;5.40;99.90;;;;;;4883729;29;20036;-87
2021/12/08 02:54:48;;;;;;;7.82;5.15;;;5.40;99.90;;;;;;4898472;29;20088;-84
2021/12/08 02:57:16;;;;;;;8.45;4.75;;;5.50;99.90;;;;;;4904349;29;20020;-87
2021/12/08 02:59:43;;;;;;;10.75;4.90;;;5.50;99.90;;;;;;4906536;29;20016;-86
2021/12/08 03:02:09;;;;;;;8.80;4.90;;;5.40;99.90;;;;;;4907284;29;20037;-85
2021/12/08 03:04:35;;;;;;;9.63;5.13;;;5.50;99.90;;;;;;4921661;29;20073;-85
2021/12/08 03:07:03;;;;;;;10.27;4.78;;;5.40;99.90;;;;;;4906489;29;20021;-84
2021/12/08 03:09:29;;;;;;;7.55;4.45;;;5.40;99.90;;;;;;4923452;29;20047;-86
2021/12/08 03:11:56;;;;;;;8.10;4.82;;;5.40;99.90;;;;;;4907466;29;20080;-85
2021/12/08 03:14:25;;;;;;;7.00;4.28;;;5.30;99.90;;;;;;4924267;29;20016;-87
2021/12/08 03:16:56;;;;;;;9.45;4.38;;;5.30;99.90;;;;;;4924411;29;20025;-86
2021/12/08 03:19:24;;;;;;;6.32;4.22;;;5.30;99.90;;;;;;4905290;29;20013;-85
2021/12/08 03:21:50;;;;;;;9.65;4.32;;;5.30;99.90;;;;;;4898158;29;20112;-87
2021/12/08 03:24:24;;;;;;;6.03;3.50;;;5.20;99.90;;;;;;4895630;29;20066;-88
2021/12/08 03:29:52;;;;;;;9.32;4.68;;;5.30;99.90;;;;;;4916166;29;20044;-85
2021/12/08 03:32:29;;;;;;;7.97;4.47;;;5.30;99.90;;;;;;4913356;29;20024;-87
2021/12/08 03:34:55;;;;;;;8.82;4.47;;;5.30;99.90;;;;;;4894705;29;20017;-86
2021/12/08 03:37:28;;;;;;;10.10;4.70;;;5.30;99.90;;;;;;4893040;29;20067;-87
2021/12/08 03:39:58;;;;;;;6.85;4.05;;;5.40;99.90;;;;;;4893825;29;20029;-88
2021/12/08 03:42:28;;;;;;;6.20;4.20;;;5.40;99.90;;;;;;4889806;29;20181;-84
2021/12/08 03:44:56;;;;;;;8.18;3.95;;;5.50;99.90;;;;;;4888172;29;20069;-88
2021/12/08 03:47:28;;;;;;;6.65;3.67;;;5.50;99.90;;;;;;4906505;29;20039;-88
2021/12/08 03:49:57;;;;;;;7.13;3.65;;;5.60;99.90;;;;;;4889158;29;20021;-89
2021/12/08 03:52:23;;;;;;;9.00;4.80;;;5.60;99.90;;;;;;4904360;29;20028;-90
2021/12/08 03:54:48;;;;;;;8.30;3.50;;;5.60;99.90;;;;;;4887317;29;20032;-88
2021/12/08 03:57:14;;;;;;;7.80;3.70;;;5.70;99.90;;;;;;4887664;29;20084;-89
2021/12/08 03:59:39;;;;;;;8.05;3.22;;;5.70;99.90;;;;;;4887836;29;20068;-87
2021/12/08 04:02:05;;;;;;;9.10;4.93;;;5.70;99.90;;;;;;4888882;29;20032;-88
2021/12/08 04:04:40;;;;;;;9.30;2.78;;;5.80;99.90;;;;;;4906849;29;20109;-89
2021/12/08 04:07:07;;;;;;;7.47;2.92;;;5.80;99.90;;;;;;4910062;29;20056;-88
2021/12/08 04:09:39;;;;;;;8.20;3.67;;;5.80;99.90;;;;;;4892306;29;20024;-86
2021/12/08 04:12:14;;;;;;;11.38;3.10;;;5.80;99.90;;;;;;4894834;29;20048;-88
2021/12/08 04:14:50;;;;;;;9.65;2.80;;;5.80;99.90;;;;;;4911282;29;20021;-87
2021/12/08 04:17:30;;;;;;;6.47;2.80;;;5.90;99.90;;;;;;4896659;29;20025;-91
2021/12/08 04:19:59;;;;;;;7.63;2.65;;;5.90;99.90;;;;;;4890792;29;20135;-90
2021/12/08 04:22:33;;;;;;;6.35;2.67;;;5.90;99.90;;;;;;4907970;29;20110;-88
2021/12/08 04:25:00;;;;;;;6.25;2.45;;;5.90;99.90;;;;;;4910055;29;20085;-87
2021/12/08 04:27:33;;;;;;;7.35;2.30;;;5.90;99.90;;;;;;4892599;29;20490;-88
2021/12/08 04:29:58;;;;;;;4.78;2.38;;;5.90;99.90;;;;;;4893029;29;20056;-87
2021/12/08 04:32:27;;;;;;;9.50;2.58;;;5.90;99.90;;;;;;4892697;29;20032;-88
2021/12/08 04:34:58;;;;;;;7.38;3.95;;;5.80;99.90;;;;;;4909802;29;20020;-89
2021/12/08 04:37:31;;;;;;;5.47;3.55;;;5.90;99.90;;;;;;4896354;29;20061;-86
2021/12/08 04:43:15;;;;;;;7.43;2.90;;;5.90;99.90;;;;;;4910328;29;20567;-89
2021/12/08 04:46:02;;;;;;;10.93;3.00;;;5.90;99.90;;;;;;4895404;29;20365;-90
2021/12/08 04:51:46;;;;;;;9.10;2.47;;;5.80;99.90;;;;;;4913620;29;20055;-89
2021/12/08 05:08:11;;;;;;;6.97;2.10;;;5.30;99.90;;;;;;4901889;29;20033;-90
2021/12/08 05:10:37;;;;;;;4.68;2.20;;;5.30;99.90;;;;;;4901439;29;20417;-89
2021/12/08 05:13:07;;;;;;;6.53;2.22;;;5.20;99.90;;;;;;4886315;29;20060;-84
2021/12/08 05:15:40;;;;;;;7.97;2.05;;;5.20;99.90;;;;;;4885069;29;20032;-92
2021/12/08 05:18:06;;;;;;;;;;;5.10;99.90;;;;;;4885227;29;20055;-89
2021/12/08 05:20:44;;;;;;;7.68;2.40;;;5.00;99.90;;;;;;4885533;29;20357;-86
2021/12/08 05:23:21;;;;;;;7.50;2.08;;;5.00;99.90;;;;;;4906865;29;20591;-87
2021/12/08 05:25:47;;;;;;;6.57;2.58;;;5.00;99.90;;;;;;4909360;29;20034;-84
2021/12/08 05:28:16;;;;;;;10.18;2.40;;;5.10;99.90;;;;;;4892968;29;20102;-87
2021/12/08 05:30:52;;;;;;;8.68;2.35;;;5.10;99.90;;;;;;4894379;29;20044;-86
2021/12/08 05:33:19;;;;;;;7.82;2.20;;;5.20;99.90;;;;;;4894109;29;20035;-88
2021/12/08 05:35:46;;;;;;;10.63;2.38;;;5.30;99.90;;;;;;4893807;29;20033;-86
2021/12/08 05:38:14;;;;;;;9.32;2.65;;;5.30;99.90;;;;;;4903682;29;20032;-87
2021/12/08 05:40:48;;;;;;;8.50;2.42;;;5.30;99.90;;;;;;4887994;29;20024;-86
2021/12/08 05:43:14;;;;;;;10.15;2.92;;;5.30;99.90;;;;;;4887842;29;20096;-86
2021/12/08 05:45:40;;;;;;;10.18;2.65;;;5.40;99.90;;;;;;4887059;29;20020;-85
2021/12/08 05:48:06;;;;;;;6.07;2.53;;;5.30;99.90;;;;;;4886527;29;20021;-86
2021/12/08 05:50:41;;;;;;;10.75;2.47;;;5.30;99.90;;;;;;4887215;29;20785;-86
2021/12/08 05:53:07;;;;;;;14.48;2.80;;;5.30;99.90;;;;;;4886684;29;20032;-85
2021/12/08 05:55:35;;;;;;;7.85;1.90;;;5.30;99.90;;;;;;4885714;29;20036;-86
2021/12/08 05:58:03;;;;;;;10.02;2.22;;;5.20;99.90;;;;;;4888446;29;20017;-86
2021/12/08 06:00:42;;;;;;;9.35;2.00;;;5.10;99.90;;;;;;4894751;29;20047;-85
2021/12/08 06:03:10;;;;;;;9.45;2.22;;;5.10;99.90;;;;;;4895337;29;20024;-88
2021/12/08 06:05:35;;;;;;;7.70;2.15;;;5.10;99.90;;;;;;4888004;29;20057;-90
2021/12/08 06:08:01;;;;;;;11.73;2.75;;;5.10;99.90;;;;;;4894350;29;20033;-89
2021/12/08 06:10:32;;;;;;;10.27;2.53;;;5.10;99.90;;;;;;4894690;29;20036;-86
2021/12/08 06:12:59;;;;;;;11.23;2.45;;;5.00;99.90;;;;;;4885941;29;20367;-87
2021/12/08 06:15:26;;;;;;;7.82;2.05;;;5.00;99.90;;;;;;4886536;29;20471;-87
2021/12/08 06:17:52;;;;;;;6.85;2.00;;;5.00;99.90;;;;;;4894170;29;20040;-89
2021/12/08 06:20:18;;;;;;;9.98;1.92;;;5.10;99.90;;;;;;4892664;29;20037;-88
2021/12/08 06:22:47;;;;;;;9.10;1.92;;;5.00;99.90;;;;;;4890996;29;20495;-87
2021/12/08 06:25:15;;;;;;;6.18;1.63;;;5.00;99.90;;;;;;4892237;29;20028;-88
2021/12/08 06:27:41;;;;;;;9.85;1.85;;;5.00;99.90;;;;;;4892253;29;20040;-88
2021/12/08 06:30:10;;;;;;;8.05;2.00;;;4.90;99.90;;;;;;4893178;29;20033;-87
2021/12/08 06:32:36;;;;;;;7.63;1.77;;;4.90;99.90;;;;;;4899437;29;20021;-89
2021/12/08 06:35:05;;;;;;;6.68;2.00;;;4.90;99.90;;;;;;4898217;29;20031;-89
2021/12/08 06:37:38;;;;;;;9.70;1.88;;;4.90;99.90;;;;;;4892733;29;20088;-89
2021/12/08 06:40:21;;;;;;;7.43;1.50;;;4.90;99.90;;;;;;4897085;29;20029;-87
2021/12/08 06:42:50;;;;;;;8.75;1.85;;;5.00;99.90;;;;;;4898088;29;20154;-89
2021/12/08 06:45:23;;;;;;;5.28;1.35;;;4.90;99.90;;;;;;4904744;29;20037;-88
2021/12/08 06:47:52;;;;;;;8.00;1.40;;;4.90;99.90;;;;;;4900233;29;20035;-88
2021/12/08 06:50:24;;;;;;;9.55;2.10;;;4.90;99.90;;;;;;4898388;29;20052;-89
2021/12/08 06:52:50;;;;;;;9.20;1.60;;;4.90;99.90;;;;;;4896536;29;20048;-90
2021/12/08 06:55:21;;;;;;;7.95;1.60;;;4.90;99.90;;;;;;4895239;29;20107;-88
2021/12/08 06:57:56;;;;;;;13.18;2.78;;;4.90;99.90;;;;;;4897079;29;20064;-87
2021/12/08 07:03:42;;;;;;;11.40;2.03;;;4.90;99.90;;;;;;4904487;29;20119;-91
2021/12/08 07:06:29;;;;;;;11.57;2.05;;;4.90;99.90;;;;;;4889416;29;20115;-90
2021/12/08 07:08:57;;;;;;;10.70;2.22;;;4.90;99.90;;;;;;4892827;29;20027;-90
2021/12/08 07:11:24;;;;;;;11.15;1.80;;;4.80;99.90;;;;;;4891404;29;20024;-87
2021/12/08 07:13:56;;;;;;;15.10;2.15;;;4.80;99.90;;;;;;4896081;29;20056;-88
2021/12/08 07:16:35;;;;;;;7.00;2.35;;;4.80;99.90;;;;;;4896159;29;20040;-89
2021/12/08 07:19:11;;;;;;;9.88;2.33;;;4.70;99.90;;;;;;4895721;29;20538;-90
2021/12/08 07:21:44;;;;;;;8.40;1.88;;;4.70;99.90;;;;;;4896935;29;20077;-89
2021/12/08 07:24:27;;;;;;;9.88;2.25;;;4.70;99.90;;;;;;4896862;29;20016;-89
2021/12/08 07:26:56;;;;;;;7.70;2.25;;;4.70;99.90;;;;;;4913909;29;20053;-88
2021/12/08 07:29:29;;;;;;;11.45;2.00;;;4.70;99.90;;;;;;4897994;29;20040;-89
2021/12/08 07:31:59;;;;;;;13.18;2.22;;;4.70;99.90;;;;;;4902891;29;20083;-87
2021/12/08 07:34:26;;;;;;;10.35;1.90;;;4.70;99.90;;;;;;4896308;29;20032;-87
2021/12/08 07:36:56;;;;;;;12.68;2.17;;;4.70;99.90;;;;;;4895343;29;20033;-87
2021/12/08 07:39:27;;;;;;;7.68;1.73;;;4.70;99.90;;;;;;4895599;29;20040;-88
2021/12/08 07:42:02;;;;;;;10.45;1.77;;;4.70;99.90;;;;;;4896314;29;20029;-87
2021/12/08 07:44:29;;;;;;;8.60;1.80;;;4.70;99.90;;;;;;4894132;29;20029;-87
2021/12/08 07:46:59;;;;;;;9.43;1.90;;;4.60;99.90;;;;;;4891382;29;20028;-87
2021/12/08 07:49:29;;;;;;;9.55;2.00;;;4.60;99.90;;;;;;4891808;29;20097;-88
2021/12/08 07:52:05;;;;;;;9.73;2.13;;;4.60;99.90;;;;;;4897867;29;20114;-88
2021/12/08 07:54:32;;;;;;;10.30;1.98;;;4.60;99.90;;;;;;4900159;29;20032;-88
2021/12/08 07:57:03;;;;;;;11.20;1.95;;;4.60;99.90;;;;;;4906803;29;20042;-89
2021/12/08 07:59:32;;;;;;;10.00;2.35;;;4.60;99.90;;;;;;4894456;29;20033;-88
2021/12/08 08:02:06;;;;;;;6.75;1.88;;;4.60;99.90;;;;;;4895160;29;20023;-88
2021/12/08 08:04:34;;;;;;;11.80;2.17;;;4.60;99.90;;;;;;4897305;29;20025;-88
2021/12/08 08:07:00;;;;;;;7.03;1.90;;;4.60;99.90;;;;;;4893303;29;20173;-91
2021/12/08 08:09:29;;;;;;;11.43;1.85;;;4.60;99.90;;;;;;4893171;29;20021;-87
2021/12/08 08:12:00;;;;;;;9.50;2.17;;;4.60;99.90;;;;;;4893762;29;20021;-88
2021/12/08 08:14:40;;;;;;;10.07;2.05;;;4.60;99.90;;;;;;4894038;29;20023;-89
2021/12/08 08:17:09;;;;;;;13.25;2.47;;;4.70;99.90;;;;;;4891677;29;20041;-87
2021/12/08 08:19:42;;;;;;;11.20;2.00;;;4.70;99.90;;;;;;4887273;29;20032;-87
2021/12/08 08:22:10;;;;;;;9.50;2.08;;;4.70;99.90;;;;;;4888221;29;20081;-87
2021/12/08 08:24:37;;;;;;;8.70;2.20;;;4.80;99.90;;;;;;4889250;29;20028;-88
2021/12/08 08:27:05;;;;;;;10.60;1.48;;;4.80;99.90;;;;;;4888613;29;20495;-91
2021/12/08 08:29:31;;;;;;;10.02;2.10;;;4.80;99.90;;;;;;4888806;29;20056;-90
2021/12/08 08:32:19;;;;;;;10.65;2.45;;;4.80;99.90;;;;;;4890050;29;20017;-90
2021/12/08 08:34:52;;;;;;;7.43;1.70;;;4.80;99.90;;;;;;4886256;29;20029;-89
2021/12/08 08:37:18;;;;;;;13.93;2.10;;;4.80;99.90;;;;;;4880198;29;20041;-88
2021/12/08 08:39:58;;;;;;;8.30;1.70;;;4.80;99.90;;;;;;4887071;29;20566;-89
2021/12/08 08:42:33;;;;;;;8.63;2.13;;;4.80;99.90;;;;;;4886569;29;20415;-86
2021/12/08 08:45:33;;;;;;;8.38;2.33;;;4.90;99.90;;;;;;4886953;29;20052;-89
2021/12/08 08:48:06;;;;;;;12.73;2.70;;;4.90;99.90;;;;;;4887022;29;20698;-87
2021/12/08 08:50:40;;;;;;;8.05;2.03;;;4.80;99.90;;;;;;4882647;29;20036;-86
2021/12/08 08:53:08;;;;;;;12.45;2.15;;;4.90;99.90;;;;;;4886036;29;20036;-87
2021/12/08 08:55:40;;;;;;;8.75;1.83;;;4.90;99.90;;;;;;4885199;29;20036;-89
2021/12/08 08:58:08;;;;;;;6.22;1.70;;;4.90;99.90;;;;;;4884169;29;20123;-89
2021/12/08 09:00:46;;;;;;;10.60;1.90;;;4.90;99.90;;;;;;4884124;29;20029;-89
2021/12/08 09:03:17;;;;;;;11.60;2.28;;;4.90;99.90;;;;;;4895241;29;20044;-86
2021/12/08 09:05:52;;;;;;;10.43;1.92;;;5.00;99.90;;;;;;4922463;24;20049;-89
2021/12/08 09:08:22;;;;;;;7.80;1.92;;;5.80;99.90;;;;;;4879326;29;20029;-89
2021/12/08 09:10:48;;;;;;;9.35;2.20;;;6.70;99.90;;;;;;4875129;29;20025;-91
2021/12/08 09:13:31;;;;;;;5.30;1.73;;;7.60;99.90;;;;;;4865771;29;20031;-91
2021/12/08 09:16:04;;;;;;;8.65;1.80;;;8.50;99.90;;;;;;4865869;29;20491;-91
2021/12/08 09:18:48;;;;;;;7.68;1.70;;;9.10;99.90;;;;;;4866021;29;20029;-90
2021/12/08 09:21:27;;;;;;;9.30;2.15;;;9.30;99.90;;;;;;4864561;29;20492;-88
2021/12/08 09:24:06;;;;;;;6.10;1.63;;;9.40;99.90;;;;;;4864886;29;20025;-88
2021/12/08 09:26:35;;;;;;;9.27;1.73;;;9.60;99.90;;;;;;4865831;29;20040;-88
2021/12/08 09:29:16;;;;;;;11.45;2.40;;;9.70;99.90;;;;;;4867044;29;20021;-92
2021/12/08 09:31:47;;;;;;;8.43;1.70;;;9.90;99.90;;;;;;4871792;29;20051;-94
2021/12/08 09:34:22;;;;;;;6.55;1.70;;;10.20;99.90;;;;;;4875025;29;20021;-93
2021/12/08 09:36:55;;;;;;;11.50;1.92;;;10.40;99.90;;;;;;4872349;29;20037;-92
2021/12/08 09:39:35;;;;;;;8.23;1.70;;;10.70;99.90;;;;;;4871447;29;20093;-91
2021/12/08 09:42:07;;;;;;;8.23;1.70;;;10.80;99.90;;;;;;4869759;29;20480;-92
2021/12/08 09:44:46;;;;;;;7.32;1.77;;;10.70;99.90;;;;;;4871567;29;20025;-93
2021/12/08 09:47:12;;;;;;;10.43;2.25;;;10.90;99.90;;;;;;4870539;29;20033;-91
2021/12/08 09:49:39;;;;;;;8.90;1.60;;;11.20;99.90;;;;;;4871307;29;20045;-91
2021/12/08 09:52:08;;;;;;;5.63;1.70;;;11.50;99.90;;;;;;4870321;29;20056;-92
2021/12/08 09:54:37;;;;;;;6.88;2.10;;;11.80;99.90;;;;;;4870310;29;20021;-93
2021/12/08 09:57:07;;;;;;;6.72;2.03;;;11.80;99.90;;;;;;4871064;29;20037;-92
2021/12/08 09:59:34;;;;;;;4.13;1.30;;;12.00;99.90;;;;;;4870501;29;20044;-91
2021/12/08 10:02:04;;;;;;;6.15;1.90;;;12.20;99.90;;;;;;4886093;29;20017;-90
2021/12/08 10:04:30;;;;;;;4.22;1.35;;;12.40;99.90;;;;;;4874551;29;20081;-89
2021/12/08 10:06:59;;;;;;;7.47;1.98;;;11.80;99.90;;;;;;4869899;29;20057;-92
2021/12/08 10:09:25;;;;;;;7.00;1.88;;;10.80;99.90;;;;;;4870819;29;20131;-90
2021/12/08 10:11:54;;;;;;;6.35;1.88;;;9.90;99.90;;;;;;4869513;29;20506;-90
2021/12/08 10:14:21;;;;;;;5.05;1.63;;;9.40;99.90;;;;;;4869903;29;20033;-90
2021/12/08 10:16:50;;;;;;;8.32;2.13;;;8.90;99.90;;;;;;4870256;29;20021;-91
2021/12/08 10:19:17;;;;;;;7.22;1.70;;;8.50;99.90;;;;;;4850833;29;20022;-89
2021/12/08 10:21:44;;;;;;;5.18;1.73;;;8.70;99.90;;;;;;4851954;29;20093;-90
2021/12/08 10:24:20;;;;;;;7.78;2.00;;;9.60;99.90;;;;;;4862900;29;20088;-90
2021/12/08 10:26:50;;;;;;;6.95;1.50;;;10.60;99.90;;;;;;4869557;29;20037;-92
2021/12/08 10:29:24;;;;;;;8.48;1.90;;;11.40;99.90;;;;;;4863888;29;20096;-92
2021/12/08 10:31:53;;;;;;;6.43;1.77;;;12.10;99.90;;;;;;4872593;29;20117;-92
2021/12/08 10:34:28;;;;;;;5.80;1.98;;;12.60;99.90;;;;;;4876078;29;20160;-93
2021/12/08 10:37:00;;;;;;;6.82;1.38;;;12.70;99.90;;;;;;4869732;29;20072;-91
2021/12/08 10:39:46;;;;;;;6.30;2.05;;;13.10;99.90;;;;;;4868737;29;20029;-91
2021/12/08 10:42:32;;;;;;;4.95;1.45;;;13.50;99.90;;;;;;4855066;29;20124;-93
2021/12/08 10:47:29;;;;;;;6.03;1.63;;;13.90;99.90;;;;;;4885292;29;20029;-91
2021/12/08 10:55:20;;;;;;;5.70;1.27;;;14.20;99.90;;;;;;4886946;29;20492;-92
2021/12/08 10:57:50;;;;;;;10.70;1.95;;;14.50;99.90;;;;;;4870254;29;20395;-92
2021/12/08 11:00:30;;;;;;;4.68;1.35;;;14.50;99.90;;;;;;4882970;29;20045;-90
2021/12/08 11:03:00;;;;;;;5.75;1.52;;;14.70;99.90;;;;;;4881109;29;20031;-91
2021/12/08 11:05:25;;;;;;;5.68;1.25;;;14.70;99.90;;;;;;4868398;29;20116;-91
2021/12/08 11:08:20;;;;;;;7.45;1.98;;;14.70;99.90;;;;;;4869266;29;20112;-91
2021/12/08 11:10:56;;;;;;;6.60;1.55;;;14.20;99.90;;;;;;4872286;29;20029;-92
2021/12/08 11:13:30;;;;;;;5.22;1.30;;;13.90;99.90;;;;;;4870659;29;20047;-90
2021/12/08 11:16:16;;;;;;;5.60;1.35;;;13.60;99.90;;;;;;4870798;29;20120;-91
2021/12/08 11:18:49;;;;;;;7.03;1.52;;;13.30;99.90;;;;;;4868678;29;20028;-88
2021/12/08 11:21:37;;;;;;;5.53;1.52;;;12.80;99.90;;;;;;4871136;29;20039;-88
2021/12/08 11:24:30;;;;;;;5.57;1.40;;;12.20;99.90;;;;;;4882181;29;20033;-90
2021/12/08 11:26:57;;;;;;;5.43;1.70;;;11.90;99.90;;;;;;4887217;29;20037;-90
2021/12/08 11:29:25;;;;;;;6.63;1.42;;;11.50;99.90;;;;;;4889157;29;20039;-89
2021/12/08 11:32:01;;;;;;;6.32;1.83;;;10.90;99.90;;;;;;4893062;29;20005;-90
2021/12/08 11:34:30;;;;;;;7.15;1.85;;;10.20;99.90;;;;;;4895205;29;20033;-90
2021/12/08 11:37:04;;;;;;;5.20;1.40;;;9.90;99.90;;;;;;4888254;29;20045;-91
2021/12/08 11:40:01;;;;;;;8.63;2.05;;;9.70;99.90;;;;;;4889148;29;20019;-91
2021/12/08 11:42:31;;;;;;;5.75;1.52;;;9.20;99.90;;;;;;4881153;29;20021;-93
2021/12/08 11:44:59;;;;;;;5.63;1.38;;;8.70;99.90;;;;;;4889220;29;20073;-91
2021/12/08 11:47:29;;;;;;;7.45;1.73;;;8.50;99.90;;;;;;4889104;29;20021;-94
2021/12/08 11:49:59;;;;;;;5.32;2.03;;;8.30;99.90;;;;;;4888964;29;20099;-94
2021/12/08 11:52:32;;;;;;;5.65;1.88;;;8.30;99.90;;;;;;5062935;23;20060;-92
2021/12/08 11:55:11;;;;;;;7.63;1.60;;;8.20;99.90;;;;;;4903072;29;20017;-92
2021/12/08 11:57:44;;;;;;;5.80;1.58;;;8.10;99.90;;;;;;4903670;29;20025;-94
2021/12/08 12:00:35;;;;;;;9.57;2.55;;;8.00;99.90;;;;;;4887349;29;20065;-88
2021/12/08 12:03:14;;;;;;;5.97;2.13;;;7.90;99.90;;;;;;4906428;29;20053;-87
2021/12/08 12:05:42;;;;;;;7.53;2.17;;;7.80;99.90;;;;;;4899656;29;20036;-89
2021/12/08 12:08:11;;;;;;;6.28;1.75;;;7.70;99.90;;;;;;4901948;29;20078;-89
2021/12/08 12:10:41;;;;;;;7.57;1.80;;;7.60;99.90;;;;;;4901860;29;20018;-92
2021/12/08 12:13:12;;;;;;;8.15;2.05;;;7.60;99.90;;;;;;4893430;29;20037;-88
2021/12/08 12:15:44;;;;;;;6.00;1.88;;;7.60;99.90;;;;;;4894386;29;20157;-90
2021/12/08 12:18:12;;;;;;;6.70;1.98;;;7.50;99.90;;;;;;4896293;29;20041;-90
2021/12/08 12:20:45;;;;;;;4.75;1.67;;;7.50;99.90;;;;;;4884282;29;20026;-92
2021/12/08 12:23:29;;;;;;;4.85;1.75;;;7.40;99.90;;;;;;4892516;29;20037;-90
2021/12/08 12:26:16;;;;;;;4.65;2.20;;;7.50;99.90;;;;;;4891339;29;20047;-91
2021/12/08 12:29:24;;;;;;;8.63;2.40;;;7.50;99.90;;;;;;4893917;29;20025;-91
2021/12/08 12:32:05;;;;;;;4.47;1.60;;;7.50;99.90;;;;;;4821749;29;20111;-90
2021/12/08 12:34:42;;;;;;;5.97;2.05;;;7.50;99.90;;;;;;4919945;23;20068;-90
2021/12/08 12:37:19;;;;;;;7.13;1.77;;;7.50;99.90;;;;;;4874826;29;20109;-93
2021/12/08 12:39:50;;;;;;;5.57;1.98;;;7.50;99.90;;;;;;4871446;29;20450;-93
2021/12/08 12:42:19;;;;;;;7.82;2.00;;;7.50;99.90;;;;;;4869468;29;20029;-93
2021/12/08 12:45:06;;;;;;;7.32;1.92;;;7.50;99.90;;;;;;4853407;29;20049;-91
2021/12/08 12:47:33;;;;;;;4.88;1.80;;;7.50;99.90;;;;;;4867578;29;20044;-93
2021/12/08 12:50:09;;;;;;;8.07;2.08;;;7.40;99.90;;;;;;4866699;29;20112;-90
2021/12/08 12:52:53;;;;;;;10.32;2.58;;;7.40;99.90;;;;;;4867171;29;20045;-92
2021/12/08 12:55:35;;;;;;;6.78;2.08;;;7.50;99.90;;;;;;4865441;29;20448;-89
2021/12/08 12:58:03;;;;;;;8.05;2.20;;;7.50;99.90;;;;;;4863143;29;20403;-89
2021/12/08 13:00:34;;;;;;;5.68;1.80;;;7.50;99.90;;;;;;4864381;29;20030;-91
2021/12/08 13:03:01;;;;;;;6.70;1.80;;;7.50;99.90;;;;;;4865995;29;20037;-92
2021/12/08 13:05:53;;;;;;;7.07;2.95;;;7.50;99.90;;;;;;4864121;29;20495;-88
2021/12/08 13:08:29;;;;;;;6.00;2.15;;;7.60;99.90;;;;;;4863572;29;20044;-92
2021/12/08 13:10:56;;;;;;;6.25;2.20;;;7.60;99.90;;;;;;4863963;29;20507;-92
2021/12/08 13:13:22;;;;;;;8.73;2.28;;;7.50;99.90;;;;;;4863938;29;20021;-88
2021/12/08 13:15:48;;;;;;;11.02;2.50;;;7.40;99.90;;;;;;4865718;29;20121;-92
2021/12/08 13:18:24;;;;;;;7.13;2.30;;;7.30;99.90;;;;;;4865973;29;20144;-91
2021/12/08 13:20:58;;;;;;;10.50;3.00;;;7.20;99.90;;;;;;4864283;29;20026;-89
2021/12/08 13:23:30;;;;;;;10.18;2.33;;;7.30;99.90;;;;;;4863200;29;20080;-91
2021/12/08 13:26:02;;;;;;;7.35;2.45;;;7.30;99.90;;;;;;4846271;29;20030;-89
2021/12/08 13:28:40;;;;;;;5.90;1.95;;;7.40;99.90;;;;;;4860899;29;20028;-91
2021/12/08 13:31:20;;;;;;;5.88;2.45;;;7.70;99.90;;;;;;4865681;29;20032;-90
2021/12/08 13:33:53;;;;;;;6.82;2.03;;;7.90;99.90;;;;;;4862617;29;20025;-90
2021/12/08 13:36:22;;;;;;;4.85;1.90;;;7.90;99.90;;;;;;4869725;29;20053;-89
2021/12/08 13:38:57;;;;;;;8.38;2.72;;;7.70;99.90;;;;;;4866394;29;20638;-90
2021/12/08 13:41:35;;;;;;;5.95;2.70;;;7.50;99.90;;;;;;4849897;29;20337;-92
2021/12/08 13:44:17;;;;;;;8.30;2.45;;;7.40;99.90;;;;;;4863389;29;20049;-91
2021/12/08 13:46:46;;;;;;;8.88;2.70;;;7.30;99.90;;;;;;4863952;29;20456;-91
2021/12/08 13:49:24;;;;;;;8.85;2.35;;;7.30;99.90;;;;;;4863374;29;20522;-89
2021/12/08 13:51:59;;;;;;;6.55;2.17;;;7.30;99.90;;;;;;4864145;29;20033;-90
2021/12/08 13:54:39;;;;;;;6.68;2.90;;;7.30;99.90;;;;;;4863411;29;20039;-92
2021/12/08 13:57:26;;;;;;;5.70;2.35;;;7.30;99.90;;;;;;4869266;29;20046;-88
2021/12/08 14:00:12;;;;;;;7.13;2.38;;;7.20;99.90;;;;;;4852683;29;20035;-89
2021/12/08 14:02:38;;;;;;;7.22;2.30;;;7.10;99.90;;;;;;4865332;29;20129;-89
2021/12/08 14:05:12;;;;;;;8.05;1.90;;;7.00;99.90;;;;;;4867877;29;20050;-91
2021/12/08 14:07:40;;;;;;;5.13;2.08;;;7.00;99.90;;;;;;4867053;29;20129;-90
2021/12/08 14:10:13;;;;;;;6.15;1.73;;;6.90;99.90;;;;;;4862335;29;20025;-89